createdAt,value
2017-04-22T00:00:14.981Z,64.60
2017-04-22T00:01:12.908Z,63.80
2017-04-22T00:02:10.804Z,63.60
2017-04-22T00:03:08.993Z,63.80
2017-04-22T00:04:07.645Z,63.90
2017-04-22T00:05:05.552Z,63.90
2017-04-22T00:06:03.617Z,63.80
2017-04-22T00:07:01.520Z,63.70
2017-04-22T00:07:59.397Z,64.50
2017-04-22T00:08:58.074Z,63.70
2017-04-22T00:09:55.925Z,63.70
2017-04-22T00:10:53.790Z,64.50
2017-04-22T00:11:51.845Z,63.80
2017-04-22T00:12:49.708Z,63.80
2017-04-22T00:13:47.596Z,63.70
2017-04-22T00:14:45.575Z,63.60
2017-04-22T00:15:43.497Z,63.50
2017-04-22T00:16:41.408Z,63.40
2017-04-22T00:17:39.661Z,63.70
2017-04-22T00:18:37.540Z,63.70
2017-04-22T00:19:35.393Z,63.60
2017-04-22T00:20:33.337Z,63.50
2017-04-22T00:21:31.203Z,63.70
2017-04-22T00:22:29.113Z,63.70
2017-04-22T00:23:26.960Z,63.90
2017-04-22T00:24:24.815Z,63.90
2017-04-22T00:25:22.672Z,63.90
2017-04-22T00:26:20.561Z,63.90
2017-04-22T00:27:18.420Z,64.00
2017-04-22T00:28:16.276Z,64.80
2017-04-22T00:29:14.238Z,64.00
2017-04-22T00:30:12.924Z,63.80
2017-04-22T00:31:11.591Z,64.20
2017-04-22T00:32:10.268Z,64.30
2017-04-22T00:33:08.127Z,64.40
2017-04-22T00:34:05.993Z,64.40
2017-04-22T00:35:03.853Z,64.50
2017-04-22T00:36:01.784Z,64.50
2017-04-22T00:36:59.637Z,64.60
2017-04-22T00:37:57.504Z,65.40
2017-04-22T00:38:55.349Z,64.70
2017-04-22T00:39:53.209Z,64.70
2017-04-22T00:40:51.057Z,64.50
2017-04-22T00:41:48.948Z,64.60
2017-04-22T00:42:46.833Z,64.70
2017-04-22T00:43:45.441Z,64.70
2017-04-22T00:44:43.340Z,64.70
2017-04-22T00:45:41.986Z,64.70
2017-04-22T00:46:40.011Z,64.80
2017-04-22T00:47:37.882Z,64.80
2017-04-22T00:48:35.737Z,64.90
2017-04-22T00:49:33.597Z,65.10
2017-04-22T00:50:31.448Z,65.10
2017-04-22T00:51:29.293Z,65.20
2017-04-22T00:52:27.208Z,65.30
2017-04-22T00:53:25.056Z,65.50
2017-04-22T00:54:22.894Z,65.50
2017-04-22T00:55:20.769Z,65.50
2017-04-22T00:56:18.617Z,65.50
2017-04-22T00:57:16.549Z,65.50
2017-04-22T00:58:14.437Z,67.00
2017-04-22T00:59:12.389Z,66.80
2017-04-22T01:00:10.300Z,67.40
2017-04-22T01:01:09.029Z,68.40
2017-04-22T01:02:06.909Z,68.60
2017-04-22T01:03:05.549Z,69.10
2017-04-22T01:04:03.438Z,69.10
2017-04-22T01:05:02.045Z,70.70
2017-04-22T01:05:59.925Z,71.10
2017-04-22T01:06:57.845Z,72.80
2017-04-22T01:07:55.760Z,73.90
2017-04-22T01:08:54.348Z,73.90
2017-04-22T01:09:52.227Z,75.20
2017-04-22T01:10:50.083Z,75.10
2017-04-22T01:11:47.952Z,76.40
2017-04-22T01:12:45.840Z,77.50
2017-04-22T01:13:43.760Z,79.00
2017-04-22T01:14:41.725Z,80.40
2017-04-22T01:15:39.637Z,81.40
2017-04-22T01:16:37.505Z,80.70
2017-04-22T01:17:35.348Z,81.40
2017-04-22T01:18:33.452Z,83.50
2017-04-22T01:19:32.113Z,83.20
2017-04-22T01:20:30.721Z,83.80
2017-04-22T01:21:28.602Z,85.50
2017-04-22T01:22:26.457Z,86.20
2017-04-22T01:23:24.321Z,86.90
2017-04-22T01:24:22.240Z,88.20
2017-04-22T01:25:20.118Z,88.30
2017-04-22T01:26:17.985Z,88.30
2017-04-22T01:27:16.605Z,88.80
2017-04-22T01:28:14.468Z,90.10
2017-04-22T01:29:12.384Z,90.30
2017-04-22T01:30:10.345Z,90.00
2017-04-22T01:31:08.197Z,90.10
2017-04-22T01:32:06.069Z,90.00
2017-04-22T01:33:04.009Z,90.40
2017-04-22T01:34:01.864Z,90.40
2017-04-22T01:34:59.790Z,90.20
2017-04-22T01:35:57.653Z,90.70
2017-04-22T01:36:55.520Z,90.40
2017-04-22T01:37:53.413Z,90.20
2017-04-22T01:38:51.280Z,90.50
2017-04-22T01:39:49.889Z,90.30
2017-04-22T01:40:47.785Z,90.60
2017-04-22T01:41:45.672Z,90.80
2017-04-22T01:42:43.584Z,90.30
2017-04-22T01:43:41.488Z,90.60
2017-04-22T01:44:39.450Z,90.90
2017-04-22T01:45:37.370Z,90.90
2017-04-22T01:46:35.229Z,91.30
2017-04-22T01:47:33.096Z,90.80
2017-04-22T01:48:30.977Z,90.70
2017-04-22T01:49:28.831Z,90.90
2017-04-22T01:50:26.693Z,91.30
2017-04-22T01:51:24.581Z,91.30
2017-04-22T01:52:22.480Z,91.40
2017-04-22T01:53:20.338Z,91.60
2017-04-22T01:54:18.202Z,91.30
2017-04-22T01:55:16.077Z,91.20
2017-04-22T01:56:14.769Z,92.10
2017-04-22T01:57:12.669Z,91.60
2017-04-22T01:58:10.568Z,92.10
2017-04-22T01:59:08.445Z,92.10
2017-04-22T02:00:06.306Z,92.10
2017-04-22T02:01:04.233Z,92.60
2017-04-22T02:02:02.122Z,92.60
2017-04-22T02:03:00.061Z,92.70
2017-04-22T02:03:57.998Z,92.60
2017-04-22T02:04:55.849Z,92.50
2017-04-22T02:05:53.711Z,92.60
2017-04-22T02:06:51.580Z,92.50
2017-04-22T02:07:49.497Z,91.90
2017-04-22T02:08:47.354Z,92.10
2017-04-22T02:09:45.268Z,92.80
2017-04-22T02:10:43.905Z,92.60
2017-04-22T02:12:40.393Z,92.40
2017-04-22T02:13:38.309Z,92.80
2017-04-22T02:14:36.909Z,93.00
2017-04-22T02:15:34.784Z,92.90
2017-04-22T02:16:32.662Z,93.20
2017-04-22T02:17:31.305Z,92.80
2017-04-22T02:18:29.197Z,93.00
2017-04-22T02:19:27.810Z,93.10
2017-04-22T02:20:25.682Z,93.10
2017-04-22T02:21:23.573Z,92.90
2017-04-22T02:22:22.182Z,92.20
2017-04-22T02:23:20.074Z,93.00
2017-04-22T02:25:16.448Z,92.70
2017-04-22T02:26:14.357Z,92.80
2017-04-22T02:27:13.007Z,92.90
2017-04-22T02:28:10.959Z,92.70
2017-04-22T02:30:08.205Z,92.60
2017-04-22T02:31:06.070Z,92.60
2017-04-22T02:32:04.669Z,93.00
2017-04-22T02:33:02.540Z,92.50
2017-04-22T02:34:00.446Z,92.50
2017-04-22T02:34:59.057Z,92.80
2017-04-22T02:35:56.936Z,92.70
2017-04-22T02:36:55.560Z,92.60
2017-04-22T02:37:53.446Z,92.60
2017-04-22T02:38:51.312Z,92.60
2017-04-22T02:39:49.962Z,92.00
2017-04-22T02:40:47.833Z,92.20
2017-04-22T02:41:45.698Z,92.20
2017-04-22T02:42:44.365Z,92.70
2017-04-22T02:43:42.314Z,92.10
2017-04-22T02:44:41.025Z,92.20
2017-04-22T02:45:38.993Z,91.90
2017-04-22T02:46:36.845Z,92.10
2017-04-22T02:47:34.705Z,91.70
2017-04-22T02:48:32.600Z,92.00
2017-04-22T02:49:31.197Z,92.00
2017-04-22T02:50:29.077Z,92.10
2017-04-22T02:51:26.949Z,92.00
2017-04-22T02:52:24.805Z,91.90
2017-04-22T02:53:22.689Z,92.10
2017-04-22T02:54:20.558Z,92.30
2017-04-22T02:55:18.436Z,92.40
2017-04-22T02:56:16.330Z,91.60
2017-04-22T02:57:14.988Z,91.50
2017-04-22T02:58:13.650Z,92.10
2017-04-22T02:59:11.765Z,91.60
2017-04-22T03:00:09.745Z,91.50
2017-04-22T03:01:07.705Z,91.40
2017-04-22T03:02:05.580Z,91.60
2017-04-22T03:03:04.193Z,91.60
2017-04-22T03:04:02.092Z,91.40
2017-04-22T03:05:00.009Z,91.60
2017-04-22T03:05:57.876Z,91.50
2017-04-22T03:06:55.781Z,91.20
2017-04-22T03:07:53.679Z,91.70
2017-04-22T03:08:51.554Z,91.90
2017-04-22T03:09:50.209Z,92.30
2017-04-22T03:10:48.113Z,92.00
2017-04-22T03:11:46.021Z,92.20
2017-04-22T03:12:44.037Z,92.20
2017-04-22T03:13:41.970Z,92.70
2017-04-22T03:14:39.898Z,92.80
2017-04-22T03:15:38.511Z,92.80
2017-04-22T03:16:36.376Z,93.10
2017-04-22T03:17:34.299Z,93.60
2017-04-22T03:18:32.190Z,93.60
2017-04-22T03:19:30.061Z,93.80
2017-04-22T03:20:28.649Z,94.30
2017-04-22T03:21:26.522Z,94.00
2017-04-22T03:22:24.406Z,94.20
2017-04-22T03:23:23.078Z,94.40
2017-04-22T03:24:20.938Z,94.40
2017-04-22T03:25:18.814Z,94.30
2017-04-22T03:26:17.436Z,94.40
2017-04-22T03:27:15.365Z,94.20
2017-04-22T03:28:13.284Z,94.50
2017-04-22T03:29:11.917Z,94.50
2017-04-22T03:30:09.815Z,94.90
2017-04-22T03:31:08.442Z,95.10
2017-04-22T03:32:06.301Z,95.20
2017-04-22T03:33:04.981Z,95.10
2017-04-22T03:34:02.884Z,95.20
2017-04-22T03:35:00.741Z,95.50
2017-04-22T03:35:58.617Z,95.20
2017-04-22T03:36:56.514Z,95.40
2017-04-22T03:37:54.377Z,95.40
2017-04-22T03:38:52.270Z,95.70
2017-04-22T03:39:50.153Z,95.80
2017-04-22T03:40:48.765Z,96.40
2017-04-22T03:41:46.617Z,96.10
2017-04-22T03:42:44.525Z,96.30
2017-04-22T03:43:43.193Z,96.40
2017-04-22T03:44:41.858Z,94.60
2017-04-22T03:45:39.785Z,94.20
2017-04-22T03:46:37.669Z,94.30
2017-04-22T03:47:36.306Z,92.80
2017-04-22T03:48:34.165Z,92.80
2017-04-22T03:49:32.086Z,92.00
2017-04-22T03:50:29.957Z,91.90
2017-04-22T03:51:27.821Z,92.10
2017-04-22T03:52:25.705Z,91.80
2017-04-22T03:53:24.309Z,91.80
2017-04-22T03:54:22.205Z,92.20
2017-04-22T03:55:20.084Z,92.00
2017-04-22T03:56:17.934Z,92.70
2017-04-22T03:57:15.802Z,93.40
2017-04-22T03:58:13.729Z,93.70
2017-04-22T03:59:12.421Z,94.00
2017-04-22T04:00:10.381Z,92.60
2017-04-22T04:01:08.288Z,92.50
2017-04-22T04:02:06.174Z,92.70
2017-04-22T04:03:04.061Z,93.10
2017-04-22T04:04:01.997Z,93.30
2017-04-22T04:04:59.909Z,93.60
2017-04-22T04:05:58.518Z,93.50
2017-04-22T04:06:56.388Z,93.40
2017-04-22T04:07:55.075Z,93.20
2017-04-22T04:08:52.948Z,93.00
2017-04-22T04:09:50.826Z,92.80
2017-04-22T04:10:48.713Z,93.20
2017-04-22T04:11:46.604Z,93.40
2017-04-22T04:12:45.217Z,92.90
2017-04-22T04:13:43.106Z,93.00
2017-04-22T04:14:41.018Z,93.90
2017-04-22T04:15:38.985Z,93.70
2017-04-22T04:16:36.865Z,93.90
2017-04-22T04:17:34.742Z,94.10
2017-04-22T04:18:33.354Z,94.40
2017-04-22T04:19:31.229Z,94.30
2017-04-22T04:20:29.117Z,94.30
2017-04-22T04:21:26.993Z,94.30
2017-04-22T04:22:24.889Z,94.10
2017-04-22T04:23:22.753Z,94.20
2017-04-22T04:24:21.349Z,94.40
2017-04-22T04:25:19.213Z,94.30
2017-04-22T04:26:17.094Z,94.10
2017-04-22T04:27:14.969Z,94.10
2017-04-22T04:28:12.915Z,94.20
2017-04-22T04:29:10.805Z,94.20
2017-04-22T04:30:08.699Z,94.00
2017-04-22T04:31:06.574Z,93.70
2017-04-22T04:32:04.441Z,93.90
2017-04-22T04:33:03.052Z,94.00
2017-04-22T04:34:01.089Z,94.20
2017-04-22T04:34:58.936Z,94.00
2017-04-22T04:35:56.805Z,94.50
2017-04-22T04:36:54.697Z,94.00
2017-04-22T04:38:51.106Z,93.40
2017-04-22T04:39:48.965Z,93.20
2017-04-22T04:40:46.820Z,93.60
2017-04-22T04:41:44.748Z,93.80
2017-04-22T04:42:42.882Z,93.90
2017-04-22T04:43:40.860Z,93.80
2017-04-22T04:44:38.779Z,93.80
2017-04-22T04:45:36.649Z,93.50
2017-04-22T04:46:34.506Z,93.70
2017-04-22T04:47:32.365Z,93.60
2017-04-22T04:48:30.377Z,93.90
2017-04-22T04:49:28.303Z,93.70
2017-04-22T04:50:26.922Z,94.00
2017-04-22T04:51:24.785Z,93.60
2017-04-22T04:52:22.669Z,93.70
2017-04-22T04:53:21.266Z,93.80
2017-04-22T04:54:19.137Z,94.00
2017-04-22T04:55:17.061Z,93.70
2017-04-22T04:56:14.971Z,93.80
2017-04-22T04:57:12.903Z,93.60
2017-04-22T04:58:10.861Z,93.40
2017-04-22T04:59:08.755Z,93.40
2017-04-22T05:00:07.361Z,93.30
2017-04-22T05:01:05.241Z,92.90
2017-04-22T05:02:03.156Z,93.00
2017-04-22T05:03:01.017Z,93.30
2017-04-22T05:03:58.920Z,93.30
2017-04-22T05:04:56.776Z,93.00
2017-04-22T05:05:54.689Z,93.20
2017-04-22T05:06:52.545Z,93.10
2017-04-22T05:07:50.446Z,92.70
2017-04-22T05:08:49.049Z,92.80
2017-04-22T05:09:46.913Z,93.10
2017-04-22T05:10:44.789Z,93.00
2017-04-22T05:11:42.745Z,92.80
2017-04-22T05:12:40.713Z,92.10
2017-04-22T05:13:39.354Z,91.80
2017-04-22T05:14:37.218Z,92.10
2017-04-22T05:15:35.081Z,92.00
2017-04-22T05:16:33.682Z,91.70
2017-04-22T05:17:31.590Z,92.00
2017-04-22T05:18:29.461Z,91.40
2017-04-22T05:19:28.066Z,91.70
2017-04-22T05:20:25.949Z,91.50
2017-04-22T05:21:23.841Z,91.60
2017-04-22T05:22:21.740Z,91.60
2017-04-22T05:23:19.598Z,91.80
2017-04-22T05:24:17.514Z,91.90
2017-04-22T05:25:15.391Z,91.70
2017-04-22T05:26:13.295Z,92.00
2017-04-22T05:27:11.192Z,92.40
2017-04-22T05:28:09.130Z,92.20
2017-04-22T05:29:06.984Z,92.10
2017-04-22T05:30:04.862Z,92.60
2017-04-22T05:31:02.761Z,92.10
2017-04-22T05:32:00.613Z,91.60
2017-04-22T05:32:58.526Z,91.70
2017-04-22T05:33:56.461Z,91.90
2017-04-22T05:34:54.321Z,91.60
2017-04-22T05:35:52.250Z,91.20
2017-04-22T05:36:50.121Z,91.90
2017-04-22T05:37:47.977Z,92.10
2017-04-22T05:38:45.909Z,91.90
2017-04-22T05:39:43.777Z,91.60
2017-04-22T05:40:41.706Z,91.40
2017-04-22T05:41:39.624Z,90.30
2017-04-22T05:42:37.506Z,90.00
2017-04-22T05:43:35.370Z,89.90
2017-04-22T05:44:33.446Z,89.40
2017-04-22T05:45:31.333Z,90.30
2017-04-22T05:46:29.957Z,91.00
2017-04-22T05:47:27.829Z,90.30
2017-04-22T05:48:25.690Z,90.10
2017-04-22T05:49:23.646Z,88.60
2017-04-22T05:50:22.257Z,88.90
2017-04-22T05:51:20.129Z,88.40
2017-04-22T05:52:17.993Z,88.30
2017-04-22T05:53:15.857Z,88.80
2017-04-22T05:54:13.759Z,87.90
2017-04-22T05:55:11.762Z,88.40
2017-04-22T05:56:09.706Z,89.10
2017-04-22T05:57:07.566Z,87.90
2017-04-22T05:58:06.193Z,89.40
2017-04-22T05:59:04.053Z,88.60
2017-04-22T06:00:01.925Z,89.20
2017-04-22T06:00:59.818Z,89.90
2017-04-22T06:01:57.682Z,90.00
2017-04-22T06:02:55.557Z,87.20
2017-04-22T06:03:53.464Z,87.20
2017-04-22T06:04:52.061Z,88.60
2017-04-22T06:05:49.969Z,89.50
2017-04-22T06:06:47.841Z,88.00
2017-04-22T06:07:46.443Z,87.90
2017-04-22T06:08:44.466Z,88.40
2017-04-22T06:09:42.394Z,88.20
2017-04-22T06:10:41.049Z,88.20
2017-04-22T06:11:39.023Z,88.90
2017-04-22T06:12:37.620Z,89.00
2017-04-22T06:13:35.493Z,89.00
2017-04-22T06:14:33.350Z,90.00
2017-04-22T06:15:31.213Z,90.00
2017-04-22T06:16:29.126Z,89.80
2017-04-22T06:17:27.024Z,89.80
2017-04-22T06:18:24.897Z,90.20
2017-04-22T06:19:23.557Z,89.30
2017-04-22T06:20:21.489Z,88.40
2017-04-22T06:21:19.350Z,85.90
2017-04-22T06:22:17.273Z,84.30
2017-04-22T06:23:15.149Z,84.90
2017-04-22T06:24:13.047Z,85.80
2017-04-22T06:25:10.943Z,85.50
2017-04-22T06:26:08.835Z,83.10
2017-04-22T06:27:07.451Z,84.50
2017-04-22T06:28:05.349Z,82.20
2017-04-22T06:29:03.988Z,83.00
2017-04-22T06:30:02.066Z,83.10
2017-04-22T06:30:59.925Z,81.00
2017-04-22T06:31:58.557Z,82.00
2017-04-22T06:32:56.651Z,83.20
2017-04-22T06:33:55.269Z,84.50
2017-04-22T06:34:53.130Z,84.30
2017-04-22T06:35:50.989Z,85.00
2017-04-22T06:36:48.861Z,82.80
2017-04-22T06:37:46.710Z,85.20
2017-04-22T06:38:44.654Z,84.70
2017-04-22T06:39:43.449Z,84.60
2017-04-22T06:40:42.146Z,85.20
2017-04-22T06:41:40.081Z,84.80
2017-04-22T06:42:38.685Z,87.70
2017-04-22T06:43:36.581Z,84.60
2017-04-22T06:44:34.453Z,85.00
2017-04-22T06:45:33.049Z,83.30
2017-04-22T06:46:30.926Z,83.00
2017-04-22T06:47:28.781Z,83.30
2017-04-22T06:48:26.638Z,82.50
2017-04-22T06:49:24.551Z,82.50
2017-04-22T06:50:22.441Z,82.50
2017-04-22T06:51:20.313Z,82.70
2017-04-22T06:52:18.280Z,83.30
2017-04-22T06:53:16.188Z,83.60
2017-04-22T06:54:14.123Z,83.30
2017-04-22T06:55:12.110Z,82.00
2017-04-22T06:57:08.601Z,80.80
2017-04-22T06:58:06.513Z,80.50
2017-04-22T06:59:05.139Z,81.40
2017-04-22T07:00:03.034Z,81.80
2017-04-22T07:01:01.697Z,81.30
2017-04-22T07:02:00.309Z,81.80
2017-04-22T07:02:58.170Z,81.90
2017-04-22T07:03:56.090Z,83.00
2017-04-22T07:04:54.008Z,82.40
2017-04-22T07:05:51.877Z,81.10
2017-04-22T07:06:50.531Z,80.60
2017-04-22T07:07:48.401Z,80.60
2017-04-22T07:08:47.005Z,79.00
2017-04-22T07:09:44.941Z,79.00
2017-04-22T07:10:42.820Z,78.30
2017-04-22T07:11:40.716Z,77.30
2017-04-22T07:12:39.365Z,77.30
2017-04-22T07:13:37.227Z,78.80
2017-04-22T07:14:35.084Z,77.70
2017-04-22T07:15:33.729Z,77.70
2017-04-22T07:16:31.640Z,76.40
2017-04-22T07:17:29.505Z,76.40
2017-04-22T07:18:27.473Z,75.70
2017-04-22T07:19:25.374Z,76.10
2017-04-22T07:20:24.023Z,74.60
2017-04-22T07:21:21.933Z,76.80
2017-04-22T07:22:19.813Z,77.10
2017-04-22T07:23:17.673Z,77.90
2017-04-22T07:24:15.569Z,77.60
2017-04-22T07:25:13.481Z,76.50
2017-04-22T07:26:11.381Z,74.30
2017-04-22T07:27:09.379Z,73.80
2017-04-22T07:28:07.238Z,74.50
2017-04-22T07:29:05.101Z,74.80
2017-04-22T07:30:03.713Z,73.50
2017-04-22T07:31:01.606Z,72.70
2017-04-22T07:31:59.530Z,73.20
2017-04-22T07:32:57.414Z,72.90
2017-04-22T07:33:55.298Z,73.20
2017-04-22T07:34:53.230Z,74.10
2017-04-22T07:35:51.863Z,73.70
2017-04-22T07:36:49.739Z,74.00
2017-04-22T07:37:47.682Z,75.50
2017-04-22T07:38:45.557Z,73.00
2017-04-22T07:39:44.241Z,73.40
2017-04-22T07:40:42.135Z,74.20
2017-04-22T07:41:40.825Z,72.30
2017-04-22T07:43:37.317Z,73.50
2017-04-22T07:44:35.177Z,72.50
2017-04-22T07:45:33.039Z,72.20
2017-04-22T07:46:30.905Z,71.10
2017-04-22T07:47:28.773Z,70.30
2017-04-22T07:48:27.413Z,70.40
2017-04-22T07:49:25.273Z,69.60
2017-04-22T07:50:23.129Z,69.70
2017-04-22T07:51:20.985Z,68.80
2017-04-22T07:52:19.814Z,68.70
2017-04-22T07:53:17.753Z,68.40
2017-04-22T07:54:15.697Z,68.90
2017-04-22T07:55:13.642Z,68.20
2017-04-22T07:56:11.576Z,68.20
2017-04-22T07:57:10.222Z,68.60
2017-04-22T07:58:08.091Z,67.90
2017-04-22T07:59:05.984Z,67.80
2017-04-22T08:00:03.871Z,67.50
2017-04-22T08:01:01.753Z,67.90
2017-04-22T08:02:00.364Z,66.30
2017-04-22T08:02:58.266Z,66.10
2017-04-22T08:03:56.924Z,65.50
2017-04-22T08:04:54.829Z,65.20
2017-04-22T08:05:52.730Z,64.60
2017-04-22T08:06:50.588Z,64.90
2017-04-22T08:07:48.452Z,65.40
2017-04-22T08:08:47.170Z,66.40
2017-04-22T08:09:45.245Z,66.10
2017-04-22T08:10:44.330Z,65.50
2017-04-22T08:11:42.281Z,65.50
2017-04-22T08:13:38.772Z,66.20
2017-04-22T08:14:36.669Z,65.80
2017-04-22T08:15:34.533Z,66.20
2017-04-22T08:16:32.785Z,66.10
2017-04-22T08:17:31.433Z,67.00
2017-04-22T08:18:29.313Z,66.20
2017-04-22T08:19:27.953Z,65.20
2017-04-22T08:20:25.829Z,64.80
2017-04-22T08:21:24.441Z,63.70
2017-04-22T08:22:22.301Z,63.90
2017-04-22T08:23:20.193Z,63.80
2017-04-22T08:24:18.130Z,62.50
2017-04-22T08:25:15.992Z,62.80
2017-04-22T08:27:12.466Z,62.40
2017-04-22T08:28:10.361Z,63.00
2017-04-22T08:29:08.297Z,62.80
2017-04-22T08:30:06.293Z,60.90
2017-04-22T08:31:04.927Z,60.20
2017-04-22T08:32:02.789Z,60.00
2017-04-22T08:33:00.657Z,59.80
2017-04-22T08:33:59.269Z,61.60
2017-04-22T08:34:57.165Z,62.20
2017-04-22T08:35:55.022Z,60.70
2017-04-22T08:36:53.694Z,60.20
2017-04-22T08:37:52.286Z,61.90
2017-04-22T08:38:50.157Z,59.70
2017-04-22T08:39:48.091Z,59.60
2017-04-22T08:40:45.975Z,60.40
2017-04-22T08:41:43.892Z,58.70
2017-04-22T08:42:41.837Z,59.30
2017-04-22T08:43:40.457Z,58.80
2017-04-22T08:44:38.320Z,59.10
2017-04-22T08:45:36.205Z,59.80
2017-04-22T08:46:34.817Z,60.70
2017-04-22T08:47:32.669Z,60.60
2017-04-22T08:48:30.573Z,60.80
2017-04-22T08:49:29.176Z,59.80
2017-04-22T08:50:27.040Z,60.00
2017-04-22T08:51:24.941Z,59.90
2017-04-22T08:52:23.578Z,60.60
2017-04-22T08:53:21.463Z,59.80
2017-04-22T08:54:20.081Z,59.30
2017-04-22T08:55:18.017Z,59.40
2017-04-22T08:56:15.880Z,59.40
2017-04-22T08:57:13.801Z,59.80
2017-04-22T08:58:11.752Z,59.90
2017-04-22T08:59:09.751Z,58.70
2017-04-22T09:00:07.651Z,59.20
2017-04-22T09:01:06.338Z,57.50
2017-04-22T09:02:04.225Z,57.60
2017-04-22T09:03:02.086Z,57.30
2017-04-22T09:03:59.946Z,57.00
2017-04-22T09:04:57.826Z,57.70
2017-04-22T09:05:56.434Z,57.50
2017-04-22T09:06:54.336Z,57.50
2017-04-22T09:07:53.022Z,58.20
2017-04-22T09:08:50.902Z,58.60
2017-04-22T09:09:48.757Z,58.20
2017-04-22T09:10:46.617Z,58.30
2017-04-22T09:11:44.595Z,58.70
2017-04-22T09:12:42.489Z,58.20
2017-04-22T09:13:40.433Z,58.20
2017-04-22T09:14:38.316Z,58.20
2017-04-22T09:15:36.161Z,58.10
2017-04-22T09:16:34.022Z,57.60
2017-04-22T09:17:31.925Z,57.70
2017-04-22T09:18:30.554Z,57.70
2017-04-22T09:19:28.417Z,57.70
2017-04-22T09:20:26.329Z,57.90
2017-04-22T09:21:24.193Z,58.50
2017-04-22T09:22:22.121Z,58.10
2017-04-22T09:23:19.985Z,58.00
2017-04-22T09:24:17.842Z,58.00
2017-04-22T09:25:15.725Z,58.80
2017-04-22T09:26:13.673Z,58.60
2017-04-22T09:27:11.598Z,57.20
2017-04-22T09:28:09.531Z,57.50
2017-04-22T09:29:07.420Z,57.40
2017-04-22T09:30:05.340Z,58.10
2017-04-22T09:31:03.212Z,57.60
2017-04-22T09:32:01.083Z,58.40
2017-04-22T09:32:59.002Z,58.00
2017-04-22T09:33:56.870Z,57.70
2017-04-22T09:34:54.758Z,57.80
2017-04-22T09:35:52.628Z,57.80
2017-04-22T09:36:51.241Z,56.50
2017-04-22T09:37:49.099Z,57.00
2017-04-22T09:38:47.037Z,57.00
2017-04-22T09:39:44.917Z,56.70
2017-04-22T09:40:42.819Z,56.50
2017-04-22T09:41:40.759Z,56.00
2017-04-22T09:42:38.634Z,56.20
2017-04-22T09:43:36.528Z,56.90
2017-04-22T09:44:34.389Z,57.40
2017-04-22T09:45:32.281Z,57.00
2017-04-22T09:46:30.165Z,56.80
2017-04-22T09:47:28.019Z,56.30
2017-04-22T09:48:25.897Z,56.70
2017-04-22T09:49:23.744Z,56.80
2017-04-22T09:50:21.625Z,56.70
2017-04-22T09:51:19.481Z,57.50
2017-04-22T09:52:17.355Z,58.00
2017-04-22T09:53:15.307Z,59.10
2017-04-22T09:54:13.235Z,59.80
2017-04-22T09:55:11.129Z,58.60
2017-04-22T09:56:09.072Z,57.50
2017-04-22T09:57:06.963Z,58.10
2017-04-22T09:58:04.832Z,58.60
2017-04-22T09:59:03.482Z,58.40
2017-04-22T10:00:01.369Z,57.60
2017-04-22T10:00:59.233Z,57.30
2017-04-22T10:01:57.102Z,57.60
2017-04-22T10:02:54.990Z,57.90
2017-04-22T10:03:52.962Z,58.30
2017-04-22T10:04:51.566Z,57.70
2017-04-22T10:05:49.422Z,56.20
2017-04-22T10:06:47.291Z,56.10
2017-04-22T10:07:45.193Z,56.80
2017-04-22T10:08:43.133Z,57.30
2017-04-22T10:09:41.877Z,57.70
2017-04-22T10:10:39.796Z,57.20
2017-04-22T10:11:37.637Z,56.70
2017-04-22T10:12:35.489Z,56.80
2017-04-22T10:13:33.337Z,57.30
2017-04-22T10:14:31.222Z,57.60
2017-04-22T10:15:29.075Z,56.60
2017-04-22T10:16:26.922Z,55.70
2017-04-22T10:17:24.785Z,55.90
2017-04-22T10:18:22.853Z,55.90
2017-04-22T10:19:20.709Z,53.50
2017-04-22T10:20:19.313Z,55.00
2017-04-22T10:21:17.253Z,55.10
2017-04-22T10:22:15.138Z,54.90
2017-04-22T10:23:13.061Z,52.80
2017-04-22T10:24:11.021Z,53.40
2017-04-22T10:25:08.913Z,54.20
2017-04-22T10:26:06.809Z,52.10
2017-04-22T10:27:04.665Z,50.40
2017-04-22T10:28:02.525Z,52.00
2017-04-22T10:29:00.409Z,51.70
2017-04-22T10:29:58.325Z,51.70
2017-04-22T10:30:56.193Z,51.00
2017-04-22T10:31:54.053Z,51.10
2017-04-22T10:32:51.911Z,51.30
2017-04-22T10:33:49.776Z,51.20
2017-04-22T10:34:47.732Z,50.50
2017-04-22T10:35:45.692Z,50.80
2017-04-22T10:36:43.617Z,50.10
2017-04-22T10:37:41.530Z,50.00
2017-04-22T10:38:39.427Z,50.70
2017-04-22T10:39:37.282Z,50.10
2017-04-22T10:40:35.154Z,49.70
2017-04-22T10:41:33.067Z,49.10
2017-04-22T10:42:31.318Z,49.40
2017-04-22T10:43:29.202Z,50.30
2017-04-22T10:44:27.193Z,50.10
2017-04-22T10:45:25.809Z,49.80
2017-04-22T10:46:23.715Z,49.90
2017-04-22T10:47:22.313Z,50.50
2017-04-22T10:48:20.165Z,50.70
2017-04-22T10:49:18.085Z,49.50
2017-04-22T10:50:15.945Z,50.20
2017-04-22T10:51:13.846Z,51.30
2017-04-22T10:52:11.844Z,50.70
2017-04-22T10:53:10.521Z,49.70
2017-04-22T10:54:08.394Z,50.40
2017-04-22T10:55:06.273Z,50.30
2017-04-22T10:56:04.140Z,50.60
2017-04-22T10:57:02.093Z,50.20
2017-04-22T10:58:06.443Z,50.10
2017-04-22T10:59:04.720Z,51.10
2017-04-22T11:00:02.609Z,50.80
2017-04-22T11:01:00.477Z,50.30
2017-04-22T11:01:59.142Z,50.40
2017-04-22T11:02:57.761Z,50.20
2017-04-22T11:03:55.625Z,50.20
2017-04-22T11:04:53.486Z,50.50
2017-04-22T11:05:51.365Z,50.70
2017-04-22T11:06:50.006Z,51.30
2017-04-22T11:07:47.897Z,51.60
2017-04-22T11:08:45.806Z,52.20
2017-04-22T11:09:43.701Z,51.70
2017-04-22T11:10:41.633Z,52.00
2017-04-22T11:11:39.573Z,52.70
2017-04-22T11:12:37.473Z,51.10
2017-04-22T11:13:35.341Z,51.40
2017-04-22T11:14:33.199Z,51.00
2017-04-22T11:15:31.061Z,50.70
2017-04-22T11:16:28.928Z,51.50
2017-04-22T11:18:26.258Z,51.70
2017-04-22T11:19:24.134Z,50.70
2017-04-22T11:20:22.013Z,49.10
2017-04-22T11:21:19.905Z,49.00
2017-04-22T11:22:17.832Z,49.70
2017-04-22T11:23:15.743Z,50.40
2017-04-22T11:24:13.654Z,50.20
2017-04-22T11:25:11.613Z,50.40
2017-04-22T11:26:09.544Z,50.10
2017-04-22T11:27:07.413Z,50.80
2017-04-22T11:28:05.305Z,51.00
2017-04-22T11:29:03.951Z,51.60
2017-04-22T11:30:01.829Z,50.40
2017-04-22T11:31:00.481Z,51.10
2017-04-22T11:32:56.873Z,49.90
2017-04-22T11:33:54.797Z,48.90
2017-04-22T11:34:52.674Z,47.80
2017-04-22T11:35:50.548Z,48.20
2017-04-22T11:36:48.406Z,47.60
2017-04-22T11:37:46.319Z,48.00
2017-04-22T11:38:44.262Z,47.90
2017-04-22T11:39:42.176Z,48.30
2017-04-22T11:40:40.085Z,47.70
2017-04-22T11:41:37.956Z,48.30
2017-04-22T11:42:35.842Z,47.50
2017-04-22T11:43:34.481Z,48.90
2017-04-22T11:44:32.344Z,48.60
2017-04-22T11:45:30.985Z,49.20
2017-04-22T11:46:28.868Z,48.70
2017-04-22T11:47:26.733Z,48.80
2017-04-22T11:48:25.441Z,48.50
2017-04-22T11:49:23.349Z,48.50
2017-04-22T11:50:21.982Z,47.00
2017-04-22T11:51:19.905Z,47.40
2017-04-22T11:52:17.972Z,48.00
2017-04-22T11:53:15.899Z,47.70
2017-04-22T11:54:13.810Z,48.00
2017-04-22T11:55:11.770Z,48.20
2017-04-22T11:56:09.669Z,48.20
2017-04-22T11:57:07.540Z,48.20
2017-04-22T11:58:05.412Z,47.80
2017-04-22T11:59:04.049Z,48.90
2017-04-22T12:00:01.960Z,48.40
2017-04-22T12:01:00.578Z,48.10
2017-04-22T12:01:58.446Z,48.40
2017-04-22T12:02:56.310Z,48.80
2017-04-22T12:03:54.181Z,48.80
2017-04-22T12:04:52.796Z,48.80
2017-04-22T12:05:50.725Z,47.80
2017-04-22T12:06:48.655Z,47.70
2017-04-22T12:07:47.284Z,46.30
2017-04-22T12:08:45.226Z,46.80
2017-04-22T12:09:43.128Z,46.60
2017-04-22T12:10:41.768Z,47.70
2017-04-22T12:11:39.741Z,48.40
2017-04-22T12:12:37.608Z,49.10
2017-04-22T12:13:36.206Z,51.50
2017-04-22T12:14:34.085Z,53.30
2017-04-22T12:15:31.993Z,54.70
2017-04-22T12:16:29.861Z,56.00
2017-04-22T12:17:27.722Z,56.70
2017-04-22T12:18:25.585Z,57.80
2017-04-22T12:19:23.441Z,60.40
2017-04-22T12:20:21.345Z,64.60
2017-04-22T12:21:19.945Z,67.50
2017-04-22T12:22:17.833Z,68.00
2017-04-22T12:23:15.713Z,69.10
2017-04-22T12:24:14.392Z,70.80
2017-04-22T12:25:12.330Z,74.30
2017-04-22T12:26:11.035Z,71.70
2017-04-22T12:27:08.916Z,71.70
2017-04-22T12:29:05.309Z,71.40
2017-04-22T12:30:03.187Z,74.20
2017-04-22T12:31:01.098Z,70.00
2017-04-22T12:31:58.993Z,68.40
2017-04-22T12:32:56.865Z,67.30
2017-04-22T12:33:54.725Z,63.70
2017-04-22T12:34:53.325Z,59.20
2017-04-22T12:35:51.222Z,57.90
2017-04-22T12:36:49.097Z,57.60
2017-04-22T12:37:47.709Z,55.70